createdAt,value
2022-10-06T09:48:47.542Z,14.70
2022-10-06T09:51:18.165Z,14.50
2022-10-06T09:54:10.949Z,14.40
2022-10-06T09:56:47.130Z,14.50
2022-10-06T09:59:40.692Z,14.60
2022-10-06T10:02:21.700Z,14.60
2022-10-06T10:04:55.652Z,14.60
2022-10-06T10:07:26.201Z,14.70
2022-10-06T10:10:19.367Z,14.80
2022-10-06T10:12:57.609Z,14.70
2022-10-06T10:15:33.898Z,14.80
2022-10-06T10:18:10.941Z,14.80
2022-10-06T10:20:50.486Z,14.90
2022-10-06T10:23:31.606Z,15.00
2022-10-06T10:26:20.140Z,15.00
2022-10-06T10:29:15.055Z,15.10
2022-10-06T10:31:50.581Z,15.00
2022-10-06T10:34:50.487Z,15.10
2022-10-06T10:37:47.885Z,15.10
2022-10-06T10:40:45.472Z,15.10
2022-10-06T10:43:29.394Z,15.20
2022-10-06T10:46:02.758Z,15.20
2022-10-06T10:48:55.791Z,15.20
2022-10-06T10:51:32.033Z,15.30
2022-10-06T10:54:03.215Z,15.40
2022-10-06T10:56:32.737Z,15.40
2022-10-06T10:59:21.923Z,15.40
2022-10-06T11:01:58.950Z,15.40
2022-10-06T11:04:25.917Z,15.70
2022-10-06T11:07:03.138Z,15.60
2022-10-06T11:10:17.932Z,15.60
2022-10-06T11:12:49.880Z,15.70
2022-10-06T11:15:51.331Z,15.60
2022-10-06T11:19:02.504Z,15.60
2022-10-06T11:21:46.848Z,15.70
2022-10-06T11:24:23.229Z,15.90
2022-10-06T11:27:08.192Z,15.80
2022-10-06T11:29:49.502Z,15.90
2022-10-06T11:32:22.100Z,16.00
2022-10-06T11:34:49.815Z,16.10
2022-10-06T11:37:39.470Z,16.30
2022-10-06T11:40:41.657Z,16.30
2022-10-06T11:43:14.103Z,16.30
2022-10-06T11:45:45.169Z,16.40
2022-10-06T11:48:27.429Z,16.30
2022-10-06T11:50:57.933Z,16.30
2022-10-06T11:53:39.623Z,16.50
2022-10-06T11:56:18.228Z,16.60
2022-10-06T11:58:50.656Z,16.70
2022-10-06T12:01:32.597Z,16.80
2022-10-06T12:04:19.516Z,16.70
2022-10-06T12:06:56.340Z,16.60
2022-10-06T12:09:25.837Z,16.60
2022-10-06T12:11:54.157Z,16.60
2022-10-06T12:16:32.505Z,16.60
2022-10-06T12:17:47.243Z,16.80
2022-10-06T12:20:29.835Z,16.90
2022-10-06T12:23:21.300Z,16.90
2022-10-06T12:26:00.009Z,17.10
2022-10-06T12:28:48.251Z,17.40
2022-10-06T12:31:37.349Z,17.30
2022-10-06T12:34:24.108Z,17.20
2022-10-06T12:37:10.655Z,17.40
2022-10-06T12:39:37.238Z,17.40
2022-10-06T12:42:17.084Z,17.40
2022-10-06T12:44:51.469Z,17.50
2022-10-06T12:47:30.096Z,17.80
2022-10-06T12:50:26.657Z,17.40
2022-10-06T12:53:05.794Z,17.80
2022-10-06T12:56:00.846Z,17.90
2022-10-06T12:58:29.771Z,17.80
2022-10-06T13:01:02.664Z,17.70
2022-10-06T13:03:30.058Z,17.80
2022-10-06T13:06:03.264Z,18.00
2022-10-06T13:08:37.780Z,18.00
2022-10-06T13:11:27.002Z,18.30
2022-10-06T13:13:55.970Z,18.70
2022-10-06T13:16:29.556Z,19.00
2022-10-06T13:18:58.844Z,18.40
2022-10-06T13:21:29.252Z,18.40
2022-10-06T13:23:56.265Z,18.60
2022-10-06T13:26:26.706Z,18.70
2022-10-06T13:28:58.549Z,18.80
2022-10-06T13:31:30.359Z,19.00
2022-10-06T13:34:12.147Z,18.60
2022-10-06T13:36:41.064Z,18.70
2022-10-06T13:39:23.320Z,19.00
2022-10-06T13:42:00.345Z,19.30
2022-10-06T13:44:41.980Z,19.60
2022-10-06T13:47:17.989Z,19.30
2022-10-06T13:50:01.881Z,20.00
2022-10-06T13:52:36.173Z,20.10
2022-10-06T13:55:04.865Z,19.20
2022-10-06T13:57:34.526Z,19.50
2022-10-06T14:00:28.237Z,19.50
2022-10-06T14:03:09.083Z,19.90
2022-10-06T14:05:41.058Z,19.70
2022-10-06T14:08:10.509Z,19.80
2022-10-06T14:10:40.071Z,20.50
2022-10-06T14:13:12.898Z,20.30
2022-10-06T14:15:50.112Z,19.60
2022-10-06T14:18:23.649Z,19.50
2022-10-06T14:20:53.253Z,19.50
2022-10-06T14:23:48.497Z,19.70
2022-10-06T14:26:17.298Z,19.60
2022-10-06T14:28:51.425Z,19.60
2022-10-06T14:31:18.713Z,19.90
2022-10-06T14:33:47.876Z,19.60
2022-10-06T14:36:23.579Z,19.80
2022-10-06T14:38:51.721Z,19.90
2022-10-06T14:41:27.941Z,19.10
2022-10-06T14:44:01.445Z,19.10
2022-10-06T14:46:29.117Z,18.90
2022-10-06T14:48:57.273Z,19.00
2022-10-06T14:51:25.505Z,19.20
2022-10-06T14:53:54.202Z,19.60
2022-10-06T14:56:23.672Z,19.60
2022-10-06T14:58:51.179Z,19.90
2022-10-06T15:01:20.246Z,20.00
2022-10-06T15:03:55.112Z,20.20
2022-10-06T15:06:40.342Z,20.00
2022-10-06T15:09:07.484Z,20.60
2022-10-06T15:11:34.775Z,21.20
2022-10-06T15:14:02.413Z,21.10
2022-10-06T15:16:30.283Z,20.80
2022-10-06T15:18:59.234Z,21.10
2022-10-06T15:21:27.113Z,21.30
2022-10-06T15:24:01.888Z,20.40
2022-10-06T15:26:47.923Z,20.80
2022-10-06T15:29:15.215Z,20.70
2022-10-06T15:31:52.850Z,21.10
2022-10-06T15:34:23.466Z,21.10
2022-10-06T15:36:52.350Z,21.10
2022-10-06T15:39:21.468Z,20.90
2022-10-06T15:41:48.492Z,20.30
2022-10-06T15:44:15.911Z,20.60
2022-10-06T15:46:55.998Z,21.30
2022-10-06T15:49:24.590Z,21.20
2022-10-06T15:51:54.037Z,20.90
2022-10-06T15:54:23.724Z,20.80
2022-10-06T15:56:55.161Z,20.60
2022-10-06T15:59:24.044Z,20.80
2022-10-06T16:01:55.994Z,20.80
2022-10-06T16:04:33.124Z,20.80
2022-10-06T16:07:00.424Z,21.00
2022-10-06T16:09:29.797Z,21.00
2022-10-06T16:11:57.856Z,21.00
2022-10-06T16:14:25.363Z,20.40
2022-10-06T16:16:52.600Z,20.00
2022-10-06T16:19:20.054Z,19.70
2022-10-06T16:21:48.921Z,19.50
2022-10-06T16:24:19.545Z,19.60
2022-10-06T16:26:47.090Z,19.00
2022-10-06T16:29:18.576Z,19.00
2022-10-06T16:31:45.471Z,18.90
2022-10-06T16:34:12.525Z,18.70
2022-10-06T16:36:39.461Z,18.50
2022-10-06T16:39:08.065Z,18.30
2022-10-06T16:41:34.756Z,18.20
2022-10-06T16:44:01.383Z,18.10
2022-10-06T16:46:29.748Z,18.10
2022-10-06T16:48:57.756Z,18.00
2022-10-06T16:51:25.729Z,17.80
2022-10-06T16:53:57.975Z,17.70
2022-10-06T16:56:30.521Z,17.40
2022-10-06T16:58:59.099Z,17.50
2022-10-06T17:01:30.830Z,17.50
2022-10-06T17:04:15.238Z,17.10
2022-10-06T17:06:44.390Z,17.10
2022-10-06T17:09:14.208Z,17.00
2022-10-06T17:11:45.469Z,17.10
2022-10-06T17:14:12.432Z,16.80
2022-10-06T17:16:41.355Z,16.90
2022-10-06T17:19:08.086Z,16.70
2022-10-06T17:21:55.695Z,16.60
2022-10-06T17:24:22.965Z,16.40
2022-10-06T17:26:49.986Z,16.50
2022-10-06T17:29:19.343Z,16.30
2022-10-06T17:31:47.086Z,16.20
2022-10-06T17:34:22.457Z,16.40
2022-10-06T17:36:51.536Z,16.10
2022-10-06T17:39:21.345Z,15.90
2022-10-06T17:41:50.397Z,16.00
2022-10-06T17:44:22.308Z,15.90
2022-10-06T17:46:50.916Z,15.80
2022-10-06T17:49:20.535Z,15.60
2022-10-06T17:51:50.131Z,15.70
2022-10-06T17:54:19.949Z,15.70
2022-10-06T17:56:48.988Z,15.60
2022-10-06T17:59:31.116Z,15.60
2022-10-06T18:02:00.477Z,15.60
2022-10-06T18:04:27.485Z,15.40
2022-10-06T18:06:54.537Z,15.40
2022-10-06T18:09:22.218Z,15.30
2022-10-06T18:11:54.486Z,15.10
2022-10-06T18:14:22.659Z,15.30
2022-10-06T18:16:56.271Z,15.30
2022-10-06T18:19:26.743Z,15.40
2022-10-06T18:21:56.495Z,15.40
2022-10-06T18:24:25.629Z,15.40
2022-10-06T18:26:53.992Z,15.30
2022-10-06T18:29:23.238Z,15.30
2022-10-06T18:31:52.039Z,15.30
2022-10-06T18:37:05.994Z,15.10
2022-10-06T18:39:33.382Z,15.00
2022-10-06T18:42:02.845Z,14.90
2022-10-06T18:44:48.615Z,14.90
2022-10-06T18:47:34.137Z,14.90
2022-10-06T18:50:00.817Z,14.90
2022-10-06T18:52:27.433Z,14.70
2022-10-06T18:54:54.037Z,14.50
2022-10-06T18:57:25.129Z,14.50
2022-10-06T18:59:54.351Z,14.40
2022-10-06T19:02:21.076Z,14.50
2022-10-06T19:04:48.250Z,14.60
2022-10-06T19:07:15.071Z,14.60
2022-10-06T19:09:46.505Z,14.60
2022-10-06T19:12:13.811Z,14.70
2022-10-06T19:14:46.931Z,14.60
2022-10-06T19:17:14.873Z,14.40
2022-10-06T19:19:50.849Z,14.30
2022-10-06T19:22:19.819Z,14.10
2022-10-06T19:24:48.382Z,14.20
2022-10-06T19:27:20.703Z,14.00
2022-10-06T19:29:54.222Z,14.20
2022-10-06T19:32:32.605Z,13.80
2022-10-06T19:34:59.502Z,13.80
2022-10-06T19:37:30.093Z,13.80
2022-10-06T19:39:57.201Z,13.50
2022-10-06T19:42:42.512Z,13.30
2022-10-06T19:45:11.501Z,13.20
2022-10-06T19:47:38.338Z,13.00
2022-10-06T19:50:11.296Z,13.00
2022-10-06T19:52:39.454Z,12.80
2022-10-06T19:55:06.378Z,12.60
2022-10-06T19:57:33.393Z,12.50
2022-10-06T20:00:00.139Z,12.60
2022-10-06T20:02:28.509Z,12.90
2022-10-06T20:04:55.119Z,12.80
2022-10-06T20:07:25.266Z,12.70
2022-10-06T20:09:51.833Z,12.80
2022-10-06T20:12:22.260Z,12.90
2022-10-06T20:14:51.452Z,13.00
2022-10-06T20:17:18.111Z,12.90
2022-10-06T20:19:45.992Z,12.90
2022-10-06T20:22:13.241Z,12.80
2022-10-06T20:24:39.801Z,13.00
2022-10-06T20:27:06.382Z,12.70
2022-10-06T20:29:34.451Z,12.70
2022-10-06T20:32:01.012Z,12.80
2022-10-06T20:34:32.489Z,12.60
2022-10-06T20:37:04.485Z,12.50
2022-10-06T20:39:51.663Z,12.60
2022-10-06T20:42:19.863Z,12.50
2022-10-06T20:44:46.680Z,12.30
2022-10-06T20:47:13.999Z,12.30
2022-10-06T20:49:42.298Z,12.10
2022-10-06T20:52:09.672Z,12.00
2022-10-06T20:54:37.141Z,12.00
2022-10-06T20:57:05.729Z,12.10
2022-10-06T20:59:35.166Z,12.30
2022-10-06T21:02:02.784Z,12.40
2022-10-06T21:04:29.947Z,12.40
2022-10-06T21:06:57.334Z,12.20
2022-10-06T21:09:24.625Z,12.00
2022-10-06T21:11:51.475Z,11.80
2022-10-06T21:14:18.299Z,11.70
2022-10-06T21:16:47.207Z,11.80
2022-10-06T21:19:16.682Z,11.80
2022-10-06T21:21:46.011Z,11.70
2022-10-06T21:24:12.880Z,11.90
2022-10-06T21:26:42.238Z,11.90
2022-10-06T21:29:11.495Z,11.80
2022-10-06T21:31:38.194Z,11.90
2022-10-06T21:34:05.124Z,12.10
2022-10-06T21:36:32.096Z,11.90
2022-10-06T21:39:01.313Z,12.00
2022-10-06T21:41:35.963Z,11.90
2022-10-06T21:44:13.904Z,11.70
2022-10-06T21:46:52.191Z,11.60
2022-10-06T21:49:21.076Z,11.70
2022-10-06T21:51:50.366Z,11.80
2022-10-06T21:54:17.595Z,12.00
2022-10-06T21:56:44.556Z,11.80
2022-10-06T21:59:11.973Z,11.80
2022-10-06T22:01:41.187Z,11.80
2022-10-06T22:04:08.432Z,11.80
2022-10-06T22:06:36.548Z,11.60
2022-10-06T22:09:05.505Z,11.50
2022-10-06T22:11:35.232Z,11.50
2022-10-06T22:14:05.229Z,11.40
2022-10-06T22:16:33.810Z,11.50
2022-10-06T22:19:03.373Z,11.40
2022-10-06T22:21:33.011Z,11.50
2022-10-06T22:24:02.516Z,11.50
2022-10-06T22:26:30.680Z,11.30
2022-10-06T22:28:58.440Z,11.40
2022-10-06T22:31:26.744Z,11.40
2022-10-06T22:33:57.727Z,11.50
2022-10-06T22:36:26.460Z,11.70
2022-10-06T22:38:53.782Z,11.70
2022-10-06T22:41:20.590Z,11.80
2022-10-06T22:43:47.502Z,11.50
2022-10-06T22:46:14.903Z,11.30
2022-10-06T22:48:41.885Z,11.50
2022-10-06T22:51:08.696Z,11.40
2022-10-06T22:53:35.825Z,11.40
2022-10-06T22:56:03.752Z,11.30
2022-10-06T22:58:30.758Z,11.40
2022-10-06T23:00:57.573Z,11.50
2022-10-06T23:03:25.770Z,11.50
2022-10-06T23:05:56.903Z,11.50
2022-10-06T23:08:23.913Z,11.50
2022-10-06T23:10:51.529Z,11.60
2022-10-06T23:13:18.752Z,11.70
2022-10-06T23:15:45.686Z,11.60
2022-10-06T23:18:12.747Z,11.60
2022-10-06T23:20:39.399Z,11.60
2022-10-06T23:23:06.338Z,11.50
2022-10-06T23:25:36.775Z,11.70
2022-10-06T23:28:03.651Z,11.60
2022-10-06T23:30:30.410Z,11.50
2022-10-06T23:32:57.084Z,11.40
2022-10-06T23:35:23.857Z,11.50
2022-10-06T23:37:50.527Z,11.40
2022-10-06T23:40:17.246Z,11.50
2022-10-06T23:42:44.013Z,11.30
2022-10-06T23:45:10.810Z,11.40
2022-10-06T23:47:37.464Z,11.40
2022-10-06T23:50:04.484Z,11.30
2022-10-06T23:52:31.322Z,11.20
2022-10-06T23:54:58.502Z,11.30
2022-10-06T23:57:25.155Z,11.30
2022-10-06T23:59:51.811Z,11.30
